Meteo Giornale » Osservazioni meteo Stati Uniti (USA) » Forth Worth Spinks
ore: 15:51 - Osservazioni Meteo Forth Worth Spinks
Lat. 32° 34' N Lon. 97° 18' W Alt. 213 metri s.l.m.
38 °C
Nuvoloso
Temp. 24 Ore
24 °C
38 °C
Sud/Sud-Est
22.2 Km/h
Dew point 16 °C
Umidità 27 %
Visibilità 10 Km
Il sole sorge alle ore 07:03
Il sole tramonta alle ore 19:55
| Data e Ora | Cielo e Fenomeni | T °C | DP °C | Um. % | Pres. hPa | Vis. km | Vento km/h | |
|---|---|---|---|---|---|---|---|---|
| Oggi h: 15:51 | Nuvoloso | 38 | 16 | 27 | 1014 | 10 | S/SE 22.2 | |
| Oggi h: 14:47 | Nuvoloso | 38 | 15 | 25 | 1015 | 10 | S/SE 20.3 | |
| Oggi h: 13:48 | Nuvoloso | 37 | 17 | 30 | 1016 | 10 | S/SE 27.8 | |
| Oggi h: 12:50 | Poco Nuvoloso | 37 | 17 | 30 | 1017 | 10 | S 24 | |
| Oggi h: 11:50 | Sereno | 35 | 18 | 36 | 1017 | 10 | S/SO 16.7 | |
| Oggi h: 10:55 | Sereno | 34 | 18 | 38 | 1017 | 10 | S/SO 14.8 | |
| Oggi h: 09:53 | Sereno | 31 | 20 | 52 | 1017 | 10 | SO 24 | |
| Oggi h: 08:53 | Sereno | 28 | 21 | 65 | 1017 | 10 | S 11.1 | |
| Oggi h: 07:55 | Sereno | 26 | 22 | 78 | 1016 | 10 | S 11.1 | |
| Oggi h: 06:48 | Sereno | 24 | 21 | 83 | 1016 | 10 | S 11.1 | |
| Oggi h: 06:35 | Sereno | 24 | 20 | 78 | 1015 | 10 | S 11.1 | |
| Oggi h: 06:15 | Sereno | 25 | 21 | 78 | 1015 | 10 | S 9.3 | |
| Oggi h: 05:55 | Sereno | 25 | 20 | 73 | 1015 | 10 | S 9.3 | |
| Oggi h: 05:35 | Sereno | 25 | 20 | 73 | 1015 | 10 | S 9.3 | |
| Oggi h: 05:15 | Sereno | 26 | 20 | 69 | 1015 | 10 | S 11.1 | |
| Oggi h: 04:55 | Sereno | 26 | 20 | 69 | 1015 | 10 | S 9.3 | |
| Oggi h: 04:35 | Sereno | 26 | 20 | 69 | 1015 | 10 | S/SO 11.1 | |
| Oggi h: 04:15 | Sereno | 26 | 20 | 69 | 1015 | 10 | S 11.1 | |
| Oggi h: 03:55 | Sereno | 27 | 20 | 65 | 1015 | 10 | S 11.1 | |
| Oggi h: 03:35 | Sereno | 27 | 20 | 65 | 1015 | 10 | S/SO 11.1 | |
| Oggi h: 03:15 | Sereno | 28 | 20 | 61 | 1015 | 10 | S/SO 11.1 | |
| Oggi h: 02:55 | Sereno | 28 | 19 | 58 | 1015 | 10 | S/SO 13 | |
| Oggi h: 02:35 | Sereno | 29 | 19 | 54 | 1015 | 10 | S/SO 14.8 | |
| Oggi h: 02:15 | Sereno | 29 | 19 | 54 | 1015 | 10 | S/SO 13 | |
| Oggi h: 01:55 | Sereno | 28 | 18 | 54 | 1015 | 10 | S 14.8 | |
| Oggi h: 01:35 | Sereno | 28 | 17 | 51 | 1015 | 10 | S 11.1 | |
| Oggi h: 01:15 | Sereno | 27 | 17 | 54 | 1015 | 10 | S 11.1 | |
| Oggi h: 00:55 | Sereno | 28 | 16 | 48 | 1015 | 10 | S 9.3 | |
| Oggi h: 00:35 | Sereno | 28 | 16 | 48 | 1015 | 10 | S 7.4 | |
| Oggi h: 00:15 | Sereno | 28 | 16 | 48 | 1015 | 10 | S 9.3 | |
| Ieri h: 23:55 | Sereno | 28 | 16 | 48 | 1014 | 10 | S 9.3 | |
| Ieri h: 23:35 | Sereno | 29 | 16 | 45 | 1014 | 10 | S 11.1 | |
| Ieri h: 23:15 | Sereno | 27 | 16 | 50 | 1014 | 10 | S 9.3 | |
| Ieri h: 22:55 | Sereno | 28 | 16 | 48 | 1014 | 10 | S 7.4 | |
| Ieri h: 22:35 | Sereno | 27 | 16 | 50 | 1014 | 10 | N 5.5 | |
| Ieri h: 22:15 | Sereno | 28 | 16 | 48 | 1014 | 10 | S/SE 7.4 | |
| Ieri h: 21:55 | Sereno | 28 | 16 | 48 | 1014 | 10 | S/SE 9.3 | |
| Ieri h: 21:35 | Poco Nuvoloso | 28 | 16 | 48 | 1014 | 10 | S/SE 7.4 | |
| Ieri h: 21:15 | Poco Nuvoloso | 29 | 16 | 45 | 1013 | 10 | N 5.5 | |
| Ieri h: 20:55 | Sereno | 30 | 15 | 40 | 1013 | 10 | SE 7.4 | |
| Ieri h: 20:35 | Sereno | 31 | 15 | 37 | 1012 | 10 | N 5.5 | |
| Ieri h: 20:15 | Sereno | 31 | 14 | 35 | 1012 | 10 | S 9.3 | |
| Ieri h: 19:55 | Sereno | 34 | 14 | 30 | 1012 | 10 | S 11.1 | |
| Ieri h: 18:51 | Sereno | 36 | 15 | 28 | 1012 | 10 | S/SE 20.3 | |
| Ieri h: 17:50 | Sereno | 38 | 14 | 24 | 1012 | 10 | S/SE 25.9 | |
| Ieri h: 16:40 | Sereno | 38 | 15 | 25 | 1012 | 10 | S/SE 20.3 | |



